sensor_id;sensor_type;location;lat;lon;timestamp;P1;durP1;ratioP1;P2;durP2;ratioP2
20770;SDS011;10545;36.536;23.064;2023-08-30T00:00:54;7.40;;;4.40;;
20770;SDS011;10545;36.536;23.064;2023-08-30T00:03:20;9.90;;;4.40;;
20770;SDS011;10545;36.536;23.064;2023-08-30T00:05:46;10.20;;;5.00;;
20770;SDS011;10545;36.536;23.064;2023-08-30T00:08:12;9.53;;;4.20;;
20770;SDS011;10545;36.536;23.064;2023-08-30T00:10:44;10.13;;;4.50;;
20770;SDS011;10545;36.536;23.064;2023-08-30T00:13:11;11.53;;;4.57;;
20770;SDS011;10545;36.536;23.064;2023-08-30T00:15:38;11.43;;;4.90;;
20770;SDS011;10545;36.536;23.064;2023-08-30T00:18:04;8.97;;;5.07;;
20770;SDS011;10545;36.536;23.064;2023-08-30T00:20:31;11.10;;;5.33;;
20770;SDS011;10545;36.536;23.064;2023-08-30T00:22:57;8.77;;;4.93;;
20770;SDS011;10545;36.536;23.064;2023-08-30T00:25:23;13.43;;;5.90;;
20770;SDS011;10545;36.536;23.064;2023-08-30T00:27:49;8.00;;;5.00;;
20770;SDS011;10545;36.536;23.064;2023-08-30T00:30:15;13.53;;;4.97;;
20770;SDS011;10545;36.536;23.064;2023-08-30T00:32:41;6.83;;;4.70;;
20770;SDS011;10545;36.536;23.064;2023-08-30T00:35:07;6.80;;;4.53;;
20770;SDS011;10545;36.536;23.064;2023-08-30T00:37:33;8.50;;;5.03;;
20770;SDS011;10545;36.536;23.064;2023-08-30T00:40:00;8.67;;;4.53;;
20770;SDS011;10545;36.536;23.064;2023-08-30T00:42:26;8.30;;;4.80;;
20770;SDS011;10545;36.536;23.064;2023-08-30T00:44:53;7.53;;;4.63;;
20770;SDS011;10545;36.536;23.064;2023-08-30T00:47:19;7.20;;;5.10;;
20770;SDS011;10545;36.536;23.064;2023-08-30T00:49:45;8.77;;;4.90;;
20770;SDS011;10545;36.536;23.064;2023-08-30T00:52:12;10.90;;;5.20;;
20770;SDS011;10545;36.536;23.064;2023-08-30T00:54:39;7.77;;;4.77;;
20770;SDS011;10545;36.536;23.064;2023-08-30T00:57:05;8.27;;;4.80;;
20770;SDS011;10545;36.536;23.064;2023-08-30T00:59:32;7.53;;;4.60;;
20770;SDS011;10545;36.536;23.064;2023-08-30T01:04:29;5.53;;;4.00;;
20770;SDS011;10545;36.536;23.064;2023-08-30T01:06:56;9.20;;;5.07;;
20770;SDS011;10545;36.536;23.064;2023-08-30T01:09:23;11.73;;;5.13;;
20770;SDS011;10545;36.536;23.064;2023-08-30T01:11:53;6.37;;;4.37;;
20770;SDS011;10545;36.536;23.064;2023-08-30T01:14:59;10.53;;;5.67;;
20770;SDS011;10545;36.536;23.064;2023-08-30T01:17:26;7.43;;;4.60;;
20770;SDS011;10545;36.536;23.064;2023-08-30T01:22:35;10.70;;;5.13;;
20770;SDS011;10545;36.536;23.064;2023-08-30T01:25:31;8.53;;;4.57;;
20770;SDS011;10545;36.536;23.064;2023-08-30T01:28:12;9.43;;;4.83;;
20770;SDS011;10545;36.536;23.064;2023-08-30T01:30:42;9.03;;;4.60;;
20770;SDS011;10545;36.536;23.064;2023-08-30T01:33:10;6.73;;;4.13;;
20770;SDS011;10545;36.536;23.064;2023-08-30T01:35:39;7.70;;;4.27;;
20770;SDS011;10545;36.536;23.064;2023-08-30T01:38:06;6.23;;;4.37;;
20770;SDS011;10545;36.536;23.064;2023-08-30T01:40:36;8.20;;;4.27;;
20770;SDS011;10545;36.536;23.064;2023-08-30T01:43:05;7.77;;;4.40;;
20770;SDS011;10545;36.536;23.064;2023-08-30T01:45:34;7.63;;;4.30;;
20770;SDS011;10545;36.536;23.064;2023-08-30T01:48:03;5.17;;;3.90;;
20770;SDS011;10545;36.536;23.064;2023-08-30T01:50:31;6.00;;;4.50;;
20770;SDS011;10545;36.536;23.064;2023-08-30T01:52:59;7.40;;;4.30;;
20770;SDS011;10545;36.536;23.064;2023-08-30T01:55:27;7.07;;;4.37;;
20770;SDS011;10545;36.536;23.064;2023-08-30T01:57:55;6.30;;;3.90;;
20770;SDS011;10545;36.536;23.064;2023-08-30T02:00:21;7.83;;;4.30;;
20770;SDS011;10545;36.536;23.064;2023-08-30T02:02:47;6.73;;;5.10;;
20770;SDS011;10545;36.536;23.064;2023-08-30T02:05:13;7.60;;;4.10;;
20770;SDS011;10545;36.536;23.064;2023-08-30T02:07:42;9.23;;;4.30;;
20770;SDS011;10545;36.536;23.064;2023-08-30T02:10:34;6.63;;;4.27;;
20770;SDS011;10545;36.536;23.064;2023-08-30T02:13:03;8.33;;;4.17;;
20770;SDS011;10545;36.536;23.064;2023-08-30T02:15:30;7.53;;;3.50;;
20770;SDS011;10545;36.536;23.064;2023-08-30T02:17:59;7.53;;;4.13;;
20770;SDS011;10545;36.536;23.064;2023-08-30T02:20:26;5.67;;;3.23;;
20770;SDS011;10545;36.536;23.064;2023-08-30T02:22:52;8.17;;;3.70;;
20770;SDS011;10545;36.536;23.064;2023-08-30T02:25:20;8.00;;;3.60;;
20770;SDS011;10545;36.536;23.064;2023-08-30T02:27:49;7.60;;;3.40;;
20770;SDS011;10545;36.536;23.064;2023-08-30T02:30:15;5.40;;;3.33;;
20770;SDS011;10545;36.536;23.064;2023-08-30T02:32:41;5.90;;;3.40;;
20770;SDS011;10545;36.536;23.064;2023-08-30T02:35:07;6.90;;;3.40;;
20770;SDS011;10545;36.536;23.064;2023-08-30T02:37:33;6.50;;;3.43;;
20770;SDS011;10545;36.536;23.064;2023-08-30T02:39:59;5.97;;;3.30;;
20770;SDS011;10545;36.536;23.064;2023-08-30T02:42:26;5.20;;;3.37;;
20770;SDS011;10545;36.536;23.064;2023-08-30T02:44:52;5.77;;;3.20;;
20770;SDS011;10545;36.536;23.064;2023-08-30T02:47:18;7.50;;;3.13;;
20770;SDS011;10545;36.536;23.064;2023-08-30T02:49:44;7.10;;;3.50;;
20770;SDS011;10545;36.536;23.064;2023-08-30T02:52:10;6.53;;;3.30;;
20770;SDS011;10545;36.536;23.064;2023-08-30T02:54:36;6.67;;;3.30;;
20770;SDS011;10545;36.536;23.064;2023-08-30T02:57:02;8.03;;;3.63;;
20770;SDS011;10545;36.536;23.064;2023-08-30T02:59:29;4.53;;;3.23;;
20770;SDS011;10545;36.536;23.064;2023-08-30T03:01:55;7.80;;;3.40;;
20770;SDS011;10545;36.536;23.064;2023-08-30T03:04:21;6.87;;;3.10;;
20770;SDS011;10545;36.536;23.064;2023-08-30T03:06:47;8.47;;;3.80;;
20770;SDS011;10545;36.536;23.064;2023-08-30T03:09:13;7.43;;;3.03;;
20770;SDS011;10545;36.536;23.064;2023-08-30T03:11:39;4.67;;;2.77;;
20770;SDS011;10545;36.536;23.064;2023-08-30T03:14:05;8.27;;;3.00;;
20770;SDS011;10545;36.536;23.064;2023-08-30T03:16:32;7.77;;;2.90;;
20770;SDS011;10545;36.536;23.064;2023-08-30T03:18:58;4.50;;;3.10;;
20770;SDS011;10545;36.536;23.064;2023-08-30T03:21:24;8.10;;;2.90;;
20770;SDS011;10545;36.536;23.064;2023-08-30T03:23:50;4.50;;;2.47;;
20770;SDS011;10545;36.536;23.064;2023-08-30T03:26:16;8.07;;;2.60;;
20770;SDS011;10545;36.536;23.064;2023-08-30T03:28:43;5.10;;;2.37;;
20770;SDS011;10545;36.536;23.064;2023-08-30T03:31:19;3.87;;;2.03;;
20770;SDS011;10545;36.536;23.064;2023-08-30T03:33:47;5.50;;;2.33;;
20770;SDS011;10545;36.536;23.064;2023-08-30T03:36:14;5.23;;;2.30;;
20770;SDS011;10545;36.536;23.064;2023-08-30T03:38:42;3.30;;;2.30;;
20770;SDS011;10545;36.536;23.064;2023-08-30T03:41:12;4.47;;;2.03;;
20770;SDS011;10545;36.536;23.064;2023-08-30T03:43:39;6.60;;;3.00;;
20770;SDS011;10545;36.536;23.064;2023-08-30T03:46:05;4.30;;;2.00;;
20770;SDS011;10545;36.536;23.064;2023-08-30T03:48:32;8.57;;;1.80;;
20770;SDS011;10545;36.536;23.064;2023-08-30T03:50:58;2.97;;;1.80;;
20770;SDS011;10545;36.536;23.064;2023-08-30T03:53:25;6.00;;;2.20;;
20770;SDS011;10545;36.536;23.064;2023-08-30T03:55:51;3.50;;;1.60;;
20770;SDS011;10545;36.536;23.064;2023-08-30T03:58:18;7.93;;;2.40;;
20770;SDS011;10545;36.536;23.064;2023-08-30T04:00:45;3.70;;;1.70;;
20770;SDS011;10545;36.536;23.064;2023-08-30T04:03:13;4.03;;;1.70;;
20770;SDS011;10545;36.536;23.064;2023-08-30T04:05:40;6.40;;;1.90;;
20770;SDS011;10545;36.536;23.064;2023-08-30T04:08:07;3.20;;;1.50;;
20770;SDS011;10545;36.536;23.064;2023-08-30T04:10:37;4.03;;;1.70;;
20770;SDS011;10545;36.536;23.064;2023-08-30T04:13:05;4.00;;;1.90;;
20770;SDS011;10545;36.536;23.064;2023-08-30T04:15:34;9.70;;;1.80;;
20770;SDS011;10545;36.536;23.064;2023-08-30T04:18:01;3.43;;;1.70;;
20770;SDS011;10545;36.536;23.064;2023-08-30T04:20:29;6.17;;;2.30;;
20770;SDS011;10545;36.536;23.064;2023-08-30T04:22:55;6.20;;;2.40;;
20770;SDS011;10545;36.536;23.064;2023-08-30T04:25:22;4.10;;;2.13;;
20770;SDS011;10545;36.536;23.064;2023-08-30T04:27:48;5.53;;;2.07;;
20770;SDS011;10545;36.536;23.064;2023-08-30T04:30:15;4.47;;;1.70;;
20770;SDS011;10545;36.536;23.064;2023-08-30T04:32:42;4.07;;;2.00;;
20770;SDS011;10545;36.536;23.064;2023-08-30T04:35:08;4.57;;;2.20;;
20770;SDS011;10545;36.536;23.064;2023-08-30T04:37:34;11.00;;;1.70;;
20770;SDS011;10545;36.536;23.064;2023-08-30T04:40:01;4.63;;;2.37;;
20770;SDS011;10545;36.536;23.064;2023-08-30T04:42:28;4.83;;;2.27;;
20770;SDS011;10545;36.536;23.064;2023-08-30T04:44:58;4.80;;;2.43;;
20770;SDS011;10545;36.536;23.064;2023-08-30T04:47:26;4.13;;;2.40;;
20770;SDS011;10545;36.536;23.064;2023-08-30T04:49:53;4.17;;;2.30;;
20770;SDS011;10545;36.536;23.064;2023-08-30T04:52:19;7.73;;;2.53;;
20770;SDS011;10545;36.536;23.064;2023-08-30T04:54:46;5.20;;;1.90;;
20770;SDS011;10545;36.536;23.064;2023-08-30T04:57:16;4.33;;;2.00;;
20770;SDS011;10545;36.536;23.064;2023-08-30T04:59:43;3.50;;;1.73;;
20770;SDS011;10545;36.536;23.064;2023-08-30T05:02:10;6.47;;;1.90;;
20770;SDS011;10545;36.536;23.064;2023-08-30T05:04:36;5.23;;;2.17;;
20770;SDS011;10545;36.536;23.064;2023-08-30T05:07:03;6.27;;;1.90;;
20770;SDS011;10545;36.536;23.064;2023-08-30T05:09:30;3.33;;;1.70;;
20770;SDS011;10545;36.536;23.064;2023-08-30T05:11:58;4.17;;;2.10;;
20770;SDS011;10545;36.536;23.064;2023-08-30T05:14:24;3.20;;;2.07;;
20770;SDS011;10545;36.536;23.064;2023-08-30T05:16:50;4.30;;;1.80;;
20770;SDS011;10545;36.536;23.064;2023-08-30T05:19:16;4.90;;;2.30;;
20770;SDS011;10545;36.536;23.064;2023-08-30T05:21:42;2.07;;;1.67;;
20770;SDS011;10545;36.536;23.064;2023-08-30T05:24:09;3.70;;;1.93;;
20770;SDS011;10545;36.536;23.064;2023-08-30T05:26:35;4.30;;;2.07;;
20770;SDS011;10545;36.536;23.064;2023-08-30T05:29:02;4.17;;;2.47;;
20770;SDS011;10545;36.536;23.064;2023-08-30T05:31:28;6.03;;;2.60;;
20770;SDS011;10545;36.536;23.064;2023-08-30T05:33:54;6.23;;;2.37;;
20770;SDS011;10545;36.536;23.064;2023-08-30T05:36:21;6.83;;;1.80;;
20770;SDS011;10545;36.536;23.064;2023-08-30T05:38:47;4.87;;;1.67;;
20770;SDS011;10545;36.536;23.064;2023-08-30T05:41:13;3.33;;;1.53;;
20770;SDS011;10545;36.536;23.064;2023-08-30T05:43:39;2.30;;;1.40;;
20770;SDS011;10545;36.536;23.064;2023-08-30T05:46:05;3.20;;;1.60;;
20770;SDS011;10545;36.536;23.064;2023-08-30T05:48:37;3.70;;;1.63;;
20770;SDS011;10545;36.536;23.064;2023-08-30T05:51:03;2.10;;;1.43;;
20770;SDS011;10545;36.536;23.064;2023-08-30T05:53:29;6.90;;;1.90;;
20770;SDS011;10545;36.536;23.064;2023-08-30T05:55:55;5.77;;;2.10;;
20770;SDS011;10545;36.536;23.064;2023-08-30T05:58:21;6.40;;;1.80;;
20770;SDS011;10545;36.536;23.064;2023-08-30T06:00:47;5.10;;;1.50;;
20770;SDS011;10545;36.536;23.064;2023-08-30T06:03:13;3.47;;;1.70;;
20770;SDS011;10545;36.536;23.064;2023-08-30T06:05:39;5.83;;;2.03;;
20770;SDS011;10545;36.536;23.064;2023-08-30T06:08:05;3.10;;;1.40;;
20770;SDS011;10545;36.536;23.064;2023-08-30T06:10:33;3.40;;;1.10;;
20770;SDS011;10545;36.536;23.064;2023-08-30T06:12:59;3.13;;;1.73;;
20770;SDS011;10545;36.536;23.064;2023-08-30T06:15:25;3.70;;;1.67;;
20770;SDS011;10545;36.536;23.064;2023-08-30T06:17:51;7.90;;;4.30;;
20770;SDS011;10545;36.536;23.064;2023-08-30T06:20:19;3.57;;;1.87;;
20770;SDS011;10545;36.536;23.064;2023-08-30T06:22:45;4.00;;;1.80;;
20770;SDS011;10545;36.536;23.064;2023-08-30T06:25:10;4.37;;;1.60;;
20770;SDS011;10545;36.536;23.064;2023-08-30T06:27:54;4.93;;;1.70;;
20770;SDS011;10545;36.536;23.064;2023-08-30T06:30:22;4.30;;;1.60;;
20770;SDS011;10545;36.536;23.064;2023-08-30T06:32:48;3.80;;;1.70;;
20770;SDS011;10545;36.536;23.064;2023-08-30T06:35:14;3.97;;;1.60;;
20770;SDS011;10545;36.536;23.064;2023-08-30T06:37:41;10.33;;;9.17;;
20770;SDS011;10545;36.536;23.064;2023-08-30T06:40:07;3.13;;;2.67;;
20770;SDS011;10545;36.536;23.064;2023-08-30T06:42:33;7.13;;;5.00;;
20770;SDS011;10545;36.536;23.064;2023-08-30T06:44:59;4.50;;;3.27;;
20770;SDS011;10545;36.536;23.064;2023-08-30T06:47:27;4.90;;;2.23;;
20770;SDS011;10545;36.536;23.064;2023-08-30T06:49:53;2.67;;;1.60;;
20770;SDS011;10545;36.536;23.064;2023-08-30T06:52:21;2.43;;;1.77;;
20770;SDS011;10545;36.536;23.064;2023-08-30T06:54:47;2.87;;;1.60;;
20770;SDS011;10545;36.536;23.064;2023-08-30T06:57:13;2.97;;;2.20;;
20770;SDS011;10545;36.536;23.064;2023-08-30T06:59:39;3.60;;;1.80;;
20770;SDS011;10545;36.536;23.064;2023-08-30T07:02:05;3.70;;;1.37;;
20770;SDS011;10545;36.536;23.064;2023-08-30T07:04:31;2.80;;;1.47;;
20770;SDS011;10545;36.536;23.064;2023-08-30T07:06:58;3.80;;;1.40;;
20770;SDS011;10545;36.536;23.064;2023-08-30T07:09:24;3.50;;;1.70;;
20770;SDS011;10545;36.536;23.064;2023-08-30T07:14:22;5.67;;;2.00;;
20770;SDS011;10545;36.536;23.064;2023-08-30T07:16:48;4.00;;;1.90;;
20770;SDS011;10545;36.536;23.064;2023-08-30T07:19:18;5.33;;;1.93;;
20770;SDS011;10545;36.536;23.064;2023-08-30T07:21:44;4.93;;;1.80;;
20770;SDS011;10545;36.536;23.064;2023-08-30T07:24:11;1.67;;;1.30;;
20770;SDS011;10545;36.536;23.064;2023-08-30T07:26:37;4.33;;;1.77;;
20770;SDS011;10545;36.536;23.064;2023-08-30T07:29:04;4.33;;;2.47;;
20770;SDS011;10545;36.536;23.064;2023-08-30T07:31:33;5.40;;;1.77;;
20770;SDS011;10545;36.536;23.064;2023-08-30T07:33:59;2.60;;;1.57;;
20770;SDS011;10545;36.536;23.064;2023-08-30T07:36:26;4.17;;;1.80;;
20770;SDS011;10545;36.536;23.064;2023-08-30T07:38:53;5.00;;;2.00;;
20770;SDS011;10545;36.536;23.064;2023-08-30T07:41:19;4.70;;;1.80;;
20770;SDS011;10545;36.536;23.064;2023-08-30T07:43:45;5.37;;;1.60;;
20770;SDS011;10545;36.536;23.064;2023-08-30T07:46:11;3.93;;;2.47;;
20770;SDS011;10545;36.536;23.064;2023-08-30T07:48:40;4.27;;;2.20;;
20770;SDS011;10545;36.536;23.064;2023-08-30T07:51:06;6.20;;;1.70;;
20770;SDS011;10545;36.536;23.064;2023-08-30T07:53:32;5.27;;;1.87;;
20770;SDS011;10545;36.536;23.064;2023-08-30T07:55:58;4.77;;;1.77;;
20770;SDS011;10545;36.536;23.064;2023-08-30T07:58:24;3.43;;;1.40;;
20770;SDS011;10545;36.536;23.064;2023-08-30T08:00:51;3.77;;;1.80;;
20770;SDS011;10545;36.536;23.064;2023-08-30T08:03:19;3.90;;;1.50;;
20770;SDS011;10545;36.536;23.064;2023-08-30T08:05:48;5.30;;;2.23;;
20770;SDS011;10545;36.536;23.064;2023-08-30T08:08:14;3.80;;;1.60;;
20770;SDS011;10545;36.536;23.064;2023-08-30T08:10:44;3.73;;;1.50;;
20770;SDS011;10545;36.536;23.064;2023-08-30T08:13:10;5.30;;;1.53;;
20770;SDS011;10545;36.536;23.064;2023-08-30T08:15:38;4.20;;;1.97;;
20770;SDS011;10545;36.536;23.064;2023-08-30T08:18:04;2.47;;;1.63;;
20770;SDS011;10545;36.536;23.064;2023-08-30T08:20:30;3.50;;;1.70;;
20770;SDS011;10545;36.536;23.064;2023-08-30T08:22:56;4.43;;;1.77;;
20770;SDS011;10545;36.536;23.064;2023-08-30T08:25:22;6.57;;;1.97;;
20770;SDS011;10545;36.536;23.064;2023-08-30T08:27:49;3.97;;;1.90;;
20770;SDS011;10545;36.536;23.064;2023-08-30T08:30:18;3.50;;;1.67;;
20770;SDS011;10545;36.536;23.064;2023-08-30T08:32:46;4.40;;;1.57;;
20770;SDS011;10545;36.536;23.064;2023-08-30T08:35:15;3.70;;;1.80;;
20770;SDS011;10545;36.536;23.064;2023-08-30T08:37:41;5.77;;;1.83;;
20770;SDS011;10545;36.536;23.064;2023-08-30T08:40:07;3.70;;;1.80;;
20770;SDS011;10545;36.536;23.064;2023-08-30T08:42:34;3.73;;;1.80;;
20770;SDS011;10545;36.536;23.064;2023-08-30T08:45:04;4.80;;;1.70;;
20770;SDS011;10545;36.536;23.064;2023-08-30T08:47:32;4.10;;;3.07;;
20770;SDS011;10545;36.536;23.064;2023-08-30T08:49:58;2.87;;;1.60;;
20770;SDS011;10545;36.536;23.064;2023-08-30T08:52:25;3.77;;;1.50;;
20770;SDS011;10545;36.536;23.064;2023-08-30T08:54:52;6.03;;;1.57;;
20770;SDS011;10545;36.536;23.064;2023-08-30T08:57:19;2.93;;;1.80;;
20770;SDS011;10545;36.536;23.064;2023-08-30T08:59:47;4.53;;;1.37;;
20770;SDS011;10545;36.536;23.064;2023-08-30T09:02:13;2.60;;;1.37;;
20770;SDS011;10545;36.536;23.064;2023-08-30T09:04:40;4.33;;;1.80;;
20770;SDS011;10545;36.536;23.064;2023-08-30T09:07:06;3.03;;;1.30;;
20770;SDS011;10545;36.536;23.064;2023-08-30T09:09:33;2.60;;;1.53;;
20770;SDS011;10545;36.536;23.064;2023-08-30T09:11:59;2.30;;;1.47;;
20770;SDS011;10545;36.536;23.064;2023-08-30T09:14:25;2.80;;;1.53;;
20770;SDS011;10545;36.536;23.064;2023-08-30T09:16:58;3.63;;;1.33;;
20770;SDS011;10545;36.536;23.064;2023-08-30T09:19:28;3.10;;;1.40;;
20770;SDS011;10545;36.536;23.064;2023-08-30T09:21:55;1.93;;;1.70;;
20770;SDS011;10545;36.536;23.064;2023-08-30T09:24:25;3.13;;;1.83;;
20770;SDS011;10545;36.536;23.064;2023-08-30T09:26:52;2.70;;;1.23;;
20770;SDS011;10545;36.536;23.064;2023-08-30T09:29:21;4.40;;;1.60;;
20770;SDS011;10545;36.536;23.064;2023-08-30T09:31:51;4.10;;;1.50;;
20770;SDS011;10545;36.536;23.064;2023-08-30T09:34:21;4.97;;;1.87;;
20770;SDS011;10545;36.536;23.064;2023-08-30T09:36:53;4.17;;;1.70;;
20770;SDS011;10545;36.536;23.064;2023-08-30T09:39:20;6.20;;;1.70;;
20770;SDS011;10545;36.536;23.064;2023-08-30T09:41:47;5.10;;;1.67;;
20770;SDS011;10545;36.536;23.064;2023-08-30T09:44:15;2.57;;;1.50;;
20770;SDS011;10545;36.536;23.064;2023-08-30T09:46:50;4.67;;;1.73;;
20770;SDS011;10545;36.536;23.064;2023-08-30T09:49:22;4.30;;;1.63;;
20770;SDS011;10545;36.536;23.064;2023-08-30T09:51:50;6.70;;;1.90;;
20770;SDS011;10545;36.536;23.064;2023-08-30T09:54:19;3.37;;;1.60;;
20770;SDS011;10545;36.536;23.064;2023-08-30T09:56:49;2.80;;;1.60;;
20770;SDS011;10545;36.536;23.064;2023-08-30T09:59:21;3.10;;;1.77;;
20770;SDS011;10545;36.536;23.064;2023-08-30T10:01:51;4.30;;;1.70;;
20770;SDS011;10545;36.536;23.064;2023-08-30T10:04:21;3.47;;;1.27;;
20770;SDS011;10545;36.536;23.064;2023-08-30T10:06:50;7.83;;;2.00;;
20770;SDS011;10545;36.536;23.064;2023-08-30T10:09:19;4.20;;;2.13;;
20770;SDS011;10545;36.536;23.064;2023-08-30T10:11:47;5.60;;;1.77;;
20770;SDS011;10545;36.536;23.064;2023-08-30T10:14:15;3.00;;;1.47;;
20770;SDS011;10545;36.536;23.064;2023-08-30T10:16:46;4.63;;;1.60;;
20770;SDS011;10545;36.536;23.064;2023-08-30T10:21:40;5.47;;;1.93;;
20770;SDS011;10545;36.536;23.064;2023-08-30T10:24:10;3.30;;;1.27;;
20770;SDS011;10545;36.536;23.064;2023-08-30T10:26:40;4.90;;;1.70;;
20770;SDS011;10545;36.536;23.064;2023-08-30T10:29:08;3.23;;;1.40;;
20770;SDS011;10545;36.536;23.064;2023-08-30T10:31:37;2.73;;;1.43;;
20770;SDS011;10545;36.536;23.064;2023-08-30T10:34:11;6.17;;;1.93;;
20770;SDS011;10545;36.536;23.064;2023-08-30T10:36:41;3.27;;;1.60;;
20770;SDS011;10545;36.536;23.064;2023-08-30T10:39:12;6.30;;;1.90;;
20770;SDS011;10545;36.536;23.064;2023-08-30T10:41:58;6.10;;;1.80;;
20770;SDS011;10545;36.536;23.064;2023-08-30T10:44:24;3.97;;;1.73;;
20770;SDS011;10545;36.536;23.064;2023-08-30T10:46:53;5.57;;;1.47;;
20770;SDS011;10545;36.536;23.064;2023-08-30T10:49:21;7.43;;;1.70;;
20770;SDS011;10545;36.536;23.064;2023-08-30T10:51:57;4.07;;;1.47;;
20770;SDS011;10545;36.536;23.064;2023-08-30T10:54:36;3.33;;;1.67;;
20770;SDS011;10545;36.536;23.064;2023-08-30T10:57:04;3.00;;;1.60;;
20770;SDS011;10545;36.536;23.064;2023-08-30T10:59:30;8.40;;;1.73;;
20770;SDS011;10545;36.536;23.064;2023-08-30T11:02:00;4.37;;;1.70;;
20770;SDS011;10545;36.536;23.064;2023-08-30T11:04:28;3.60;;;1.70;;
20770;SDS011;10545;36.536;23.064;2023-08-30T11:06:54;3.80;;;1.67;;
20770;SDS011;10545;36.536;23.064;2023-08-30T11:09:22;5.07;;;1.60;;
20770;SDS011;10545;36.536;23.064;2023-08-30T11:11:50;3.43;;;1.70;;
20770;SDS011;10545;36.536;23.064;2023-08-30T11:14:17;3.83;;;1.60;;
20770;SDS011;10545;36.536;23.064;2023-08-30T11:16:44;4.83;;;1.80;;
20770;SDS011;10545;36.536;23.064;2023-08-30T11:19:10;5.23;;;2.20;;
20770;SDS011;10545;36.536;23.064;2023-08-30T11:21:38;4.73;;;1.70;;
20770;SDS011;10545;36.536;23.064;2023-08-30T11:24:06;9.43;;;2.07;;
20770;SDS011;10545;36.536;23.064;2023-08-30T11:26:33;7.00;;;2.03;;
20770;SDS011;10545;36.536;23.064;2023-08-30T11:29:06;3.30;;;1.67;;
20770;SDS011;10545;36.536;23.064;2023-08-30T11:31:33;6.40;;;1.83;;
20770;SDS011;10545;36.536;23.064;2023-08-30T11:34:00;5.90;;;2.10;;
20770;SDS011;10545;36.536;23.064;2023-08-30T11:36:31;6.33;;;1.97;;
20770;SDS011;10545;36.536;23.064;2023-08-30T11:38:58;3.43;;;2.03;;
20770;SDS011;10545;36.536;23.064;2023-08-30T11:41:24;10.73;;;1.90;;
20770;SDS011;10545;36.536;23.064;2023-08-30T11:43:52;6.50;;;1.70;;
20770;SDS011;10545;36.536;23.064;2023-08-30T11:46:19;4.43;;;1.90;;
20770;SDS011;10545;36.536;23.064;2023-08-30T11:48:47;7.73;;;2.30;;
20770;SDS011;10545;36.536;23.064;2023-08-30T11:51:15;6.70;;;1.70;;
20770;SDS011;10545;36.536;23.064;2023-08-30T11:53:44;6.40;;;2.10;;
20770;SDS011;10545;36.536;23.064;2023-08-30T11:56:11;4.30;;;1.57;;
20770;SDS011;10545;36.536;23.064;2023-08-30T11:58:38;2.43;;;1.63;;
20770;SDS011;10545;36.536;23.064;2023-08-30T12:01:05;8.23;;;2.17;;
20770;SDS011;10545;36.536;23.064;2023-08-30T12:03:33;10.10;;;1.70;;
20770;SDS011;10545;36.536;23.064;2023-08-30T12:05:59;5.00;;;1.93;;
20770;SDS011;10545;36.536;23.064;2023-08-30T12:08:27;4.77;;;1.77;;
20770;SDS011;10545;36.536;23.064;2023-08-30T12:10:55;5.97;;;1.80;;
20770;SDS011;10545;36.536;23.064;2023-08-30T12:13:23;9.97;;;2.10;;
20770;SDS011;10545;36.536;23.064;2023-08-30T12:15:50;7.17;;;1.97;;
20770;SDS011;10545;36.536;23.064;2023-08-30T12:18:21;7.23;;;2.00;;
20770;SDS011;10545;36.536;23.064;2023-08-30T12:20:57;5.00;;;1.80;;
20770;SDS011;10545;36.536;23.064;2023-08-30T12:23:24;11.50;;;1.70;;
20770;SDS011;10545;36.536;23.064;2023-08-30T12:25:58;8.23;;;2.70;;
20770;SDS011;10545;36.536;23.064;2023-08-30T12:28:41;5.70;;;1.90;;
20770;SDS011;10545;36.536;23.064;2023-08-30T12:31:09;8.20;;;2.30;;
20770;SDS011;10545;36.536;23.064;2023-08-30T12:33:36;6.23;;;2.20;;
20770;SDS011;10545;36.536;23.064;2023-08-30T12:36:03;7.10;;;1.90;;
20770;SDS011;10545;36.536;23.064;2023-08-30T12:38:29;6.90;;;2.07;;
20770;SDS011;10545;36.536;23.064;2023-08-30T12:40:56;8.33;;;1.93;;
20770;SDS011;10545;36.536;23.064;2023-08-30T12:43:22;7.40;;;2.17;;
20770;SDS011;10545;36.536;23.064;2023-08-30T12:45:49;6.10;;;1.80;;
20770;SDS011;10545;36.536;23.064;2023-08-30T12:48:16;6.60;;;2.10;;
20770;SDS011;10545;36.536;23.064;2023-08-30T12:50:44;7.73;;;1.87;;
20770;SDS011;10545;36.536;23.064;2023-08-30T12:53:12;6.67;;;1.80;;
20770;SDS011;10545;36.536;23.064;2023-08-30T12:55:38;7.90;;;2.30;;
20770;SDS011;10545;36.536;23.064;2023-08-30T12:58:06;6.70;;;2.10;;
20770;SDS011;10545;36.536;23.064;2023-08-30T13:00:33;6.47;;;2.43;;
20770;SDS011;10545;36.536;23.064;2023-08-30T13:03:00;9.80;;;2.07;;
20770;SDS011;10545;36.536;23.064;2023-08-30T13:05:29;8.80;;;2.07;;
20770;SDS011;10545;36.536;23.064;2023-08-30T13:07:58;9.00;;;2.80;;
20770;SDS011;10545;36.536;23.064;2023-08-30T13:10:25;6.90;;;1.97;;
20770;SDS011;10545;36.536;23.064;2023-08-30T13:12:51;9.93;;;2.63;;
20770;SDS011;10545;36.536;23.064;2023-08-30T13:15:18;9.93;;;2.33;;
20770;SDS011;10545;36.536;23.064;2023-08-30T13:17:44;6.90;;;2.10;;
20770;SDS011;10545;36.536;23.064;2023-08-30T13:20:10;6.80;;;2.13;;
20770;SDS011;10545;36.536;23.064;2023-08-30T13:22:36;7.77;;;2.40;;
20770;SDS011;10545;36.536;23.064;2023-08-30T13:25:02;7.63;;;2.10;;
20770;SDS011;10545;36.536;23.064;2023-08-30T13:27:29;6.33;;;2.17;;
20770;SDS011;10545;36.536;23.064;2023-08-30T13:29:55;9.30;;;2.60;;
20770;SDS011;10545;36.536;23.064;2023-08-30T13:32:21;6.70;;;2.30;;
20770;SDS011;10545;36.536;23.064;2023-08-30T13:34:47;11.30;;;2.40;;
20770;SDS011;10545;36.536;23.064;2023-08-30T13:37:15;7.30;;;2.50;;
20770;SDS011;10545;36.536;23.064;2023-08-30T13:39:41;8.00;;;2.30;;
20770;SDS011;10545;36.536;23.064;2023-08-30T13:42:07;13.23;;;2.70;;
20770;SDS011;10545;36.536;23.064;2023-08-30T13:44:33;10.20;;;2.07;;
20770;SDS011;10545;36.536;23.064;2023-08-30T13:47:03;5.47;;;2.00;;
20770;SDS011;10545;36.536;23.064;2023-08-30T13:49:30;8.30;;;2.47;;
20770;SDS011;10545;36.536;23.064;2023-08-30T13:51:57;6.17;;;2.30;;
20770;SDS011;10545;36.536;23.064;2023-08-30T13:54:24;3.43;;;1.63;;
20770;SDS011;10545;36.536;23.064;2023-08-30T13:56:51;7.60;;;2.07;;
20770;SDS011;10545;36.536;23.064;2023-08-30T13:59:17;4.17;;;2.07;;
20770;SDS011;10545;36.536;23.064;2023-08-30T14:01:43;9.07;;;1.83;;
20770;SDS011;10545;36.536;23.064;2023-08-30T14:04:09;6.17;;;2.33;;
20770;SDS011;10545;36.536;23.064;2023-08-30T14:06:35;4.87;;;1.80;;
20770;SDS011;10545;36.536;23.064;2023-08-30T14:09:01;5.07;;;1.90;;
20770;SDS011;10545;36.536;23.064;2023-08-30T14:11:30;3.57;;;1.77;;
20770;SDS011;10545;36.536;23.064;2023-08-30T14:13:56;5.17;;;1.80;;
20770;SDS011;10545;36.536;23.064;2023-08-30T14:16:25;4.83;;;1.50;;
20770;SDS011;10545;36.536;23.064;2023-08-30T14:18:51;3.73;;;1.57;;
20770;SDS011;10545;36.536;23.064;2023-08-30T14:21:17;6.03;;;2.10;;
20770;SDS011;10545;36.536;23.064;2023-08-30T14:23:43;4.33;;;1.73;;
20770;SDS011;10545;36.536;23.064;2023-08-30T14:26:09;3.60;;;1.70;;
20770;SDS011;10545;36.536;23.064;2023-08-30T14:28:38;3.60;;;1.60;;
20770;SDS011;10545;36.536;23.064;2023-08-30T14:31:08;4.30;;;1.63;;
20770;SDS011;10545;36.536;23.064;2023-08-30T14:33:35;5.37;;;1.90;;
20770;SDS011;10545;36.536;23.064;2023-08-30T14:36:02;3.10;;;1.50;;
20770;SDS011;10545;36.536;23.064;2023-08-30T14:38:33;5.50;;;2.33;;
20770;SDS011;10545;36.536;23.064;2023-08-30T14:41:02;10.30;;;2.20;;
20770;SDS011;10545;36.536;23.064;2023-08-30T14:43:28;7.00;;;2.10;;
20770;SDS011;10545;36.536;23.064;2023-08-30T14:46:04;2.77;;;1.90;;